Aérodrome :
LOGIN :

S'inscrire | Disclaimer

   EN    FR    IT 

 










Légende :    VFR   VFR Marginal   IFR   IFR Intensif   IFR Très Intensif
Visi : 
Plafond : 
>= 8 km
>= 3000ft
5 à 8 km
1000 à 3000 ft
1500m à 5 km
500 à 1000 ft
800 à 1500m
200 à 500 ft
< 800m
< 200 ft
Symboles :   Orages  Brouillard  Fortes neiges  Fortes précipitations  Vent > 20 kt
SIGMETs :   Divers  Orages  Givrage  Turbulence  Onde Orograph.  Cendres Volcan.







- Altitude de l'aérodrome : 607 ft
- Code IATA : BCM


LRBC - Bacău

DERNIER METAR :
  • 191230Z 32010KT 9999 FEW040TCU SCT055 28/17 Q1018

METARs EXPIRÉS :
  • 191200Z 33009KT 9999 SCT050 29/18 Q1018
  • 191130Z 34007KT 9999 FEW050 29/16 Q1019
  • 191100Z 34009KT 290V020 9999 FEW050 29/17 Q1019
  • 191030Z 34009KT 9999 FEW050 29/19 Q1019
  • 191000Z 34009KT 310V010 9999 FEW050 29/19 Q1019

TAF TAF LRBC
Valide du 19 à 12h jusqu'au 19 à 21h UTC


191100Z 1912/1921 33008KT CAVOK
TEMPO 1912/1918 SCT050CB
PROB40
TEMPO 1913/1918 VRB18G28KT 5000 -TSRA
Pas de NOTAMs connus pour ce terrain.



MET'MAP, la Météo Aéronautique d'un coup d'oeil ! - Copyright ORBIFLY Décembre 2007 - Disclaimer

ORBIFLY MET'MAP TEAM :

Programmation & Développement : Alexandra Zaïnal
Conception & Développement : Baudouin d'Aumeries
Co-Programmation & Développement : Marc-Olivier Méhu
Soutien technique & logistique : Manuel Goepfert

Contact : metmap@orbifly.com




SOURCES & CREDITS :

   NOAA